LFSG/EPL METAR and TAF weather

Enter ICAO airport designator
Station Type Date Time Source
LFSG METAR 2019/08/25 06:30 UTC NOAA

LFSG 250630Z AUTO 00000KT CAVOK 17/14 Q1019


Station Type Date Time Source
LFSG Decoded METAR 2019/08/25 06:30 UTC NOAA

Station name not available
Aug 25, 2019 - 02:30 AM EDT / 2019.08.25 0630 UTC
Wind: Calm:0
Visibility: greater than 7 mile(s):0
Temperature: 62 F (17 C)
Dew Point: 57 F (14 C)
Relative Humidity: 82%
Pressure (altimeter): 30.09 in. Hg (1019 hPa)
ob: LFSG 250630Z AUTO 00000KT CAVOK 17/14 Q1019
cycle: 6

Station Type Date Time Source
LFSG TAF UTC NOAA

Error!

Example: see airport list